LRSV/SCV METAR and TAF weather

Enter ICAO airport designator
Station Type Date Time Source
LRSV METAR 2019/07/18 10:30 UTC NOAA

LRSV 181030Z 29004KT 230V030 9999 BKN047 20/09 Q1014


Station Type Date Time Source
LRSV Decoded METAR 2019/07/18 10:30 UTC NOAA

Suceava / Salcea, Romania (LRSV) 47-39N 026-15E 351M
Jul 18, 2019 - 06:30 AM EDT / 2019.07.18 1030 UTC
Wind: from the WNW (290 degrees) at 5 MPH (4 KT) (direction variable):0
Visibility: greater than 7 mile(s):0
Sky conditions: mostly cloudy
Temperature: 68 F (20 C)
Dew Point: 48 F (9 C)
Relative Humidity: 49%
Pressure (altimeter): 29.94 in. Hg (1014 hPa)
ob: LRSV 181030Z 29004KT 230V030 9999 BKN047 20/09 Q1014
cycle: 10

Station Type Date Time Source
LRSV TAF 2014/07/19 18:48 UTC NOAA

TAF LRSV 191800Z 1918/2024 CNL

Example: see airport list